sensor_id;sensor_type;location;lat;lon;timestamp;P1;durP1;ratioP1;P2;durP2;ratioP2
37973;SDS011;23796;51.458;7.000;2023-07-13T00:01:55;3.33;;;0.90;;
37973;SDS011;23796;51.458;7.000;2023-07-13T00:04:22;4.55;;;1.00;;
37973;SDS011;23796;51.458;7.000;2023-07-13T00:06:50;2.90;;;0.88;;
37973;SDS011;23796;51.458;7.000;2023-07-13T00:09:16;4.00;;;0.93;;
37973;SDS011;23796;51.458;7.000;2023-07-13T00:11:45;5.38;;;1.20;;
37973;SDS011;23796;51.458;7.000;2023-07-13T00:14:17;6.25;;;1.20;;
37973;SDS011;23796;51.458;7.000;2023-07-13T00:16:45;5.65;;;1.13;;
37973;SDS011;23796;51.458;7.000;2023-07-13T00:19:12;3.22;;;1.00;;
37973;SDS011;23796;51.458;7.000;2023-07-13T00:21:38;3.88;;;1.30;;
37973;SDS011;23796;51.458;7.000;2023-07-13T00:24:08;6.85;;;1.48;;
37973;SDS011;23796;51.458;7.000;2023-07-13T00:26:39;8.40;;;1.63;;
37973;SDS011;23796;51.458;7.000;2023-07-13T00:29:11;4.95;;;1.15;;
37973;SDS011;23796;51.458;7.000;2023-07-13T00:31:39;4.13;;;1.38;;
37973;SDS011;23796;51.458;7.000;2023-07-13T00:34:05;4.75;;;1.45;;
37973;SDS011;23796;51.458;7.000;2023-07-13T00:36:33;5.82;;;1.15;;
37973;SDS011;23796;51.458;7.000;2023-07-13T00:38:59;4.60;;;1.60;;
37973;SDS011;23796;51.458;7.000;2023-07-13T00:41:24;3.95;;;1.38;;
37973;SDS011;23796;51.458;7.000;2023-07-13T00:43:53;6.22;;;1.40;;
37973;SDS011;23796;51.458;7.000;2023-07-13T00:46:22;3.83;;;1.13;;
37973;SDS011;23796;51.458;7.000;2023-07-13T00:48:49;4.47;;;1.10;;
37973;SDS011;23796;51.458;7.000;2023-07-13T00:51:19;3.03;;;0.80;;
37973;SDS011;23796;51.458;7.000;2023-07-13T00:53:48;5.45;;;1.48;;
37973;SDS011;23796;51.458;7.000;2023-07-13T00:56:17;4.20;;;0.85;;
37973;SDS011;23796;51.458;7.000;2023-07-13T00:58:43;3.38;;;0.90;;
37973;SDS011;23796;51.458;7.000;2023-07-13T01:01:10;3.72;;;1.20;;
37973;SDS011;23796;51.458;7.000;2023-07-13T01:03:37;4.20;;;1.30;;
37973;SDS011;23796;51.458;7.000;2023-07-13T01:06:07;6.03;;;1.20;;
37973;SDS011;23796;51.458;7.000;2023-07-13T01:08:38;6.80;;;1.38;;
37973;SDS011;23796;51.458;7.000;2023-07-13T01:11:05;3.90;;;1.35;;
37973;SDS011;23796;51.458;7.000;2023-07-13T01:13:33;5.57;;;1.58;;
37973;SDS011;23796;51.458;7.000;2023-07-13T01:15:58;5.97;;;1.15;;
37973;SDS011;23796;51.458;7.000;2023-07-13T01:18:30;4.45;;;1.52;;
37973;SDS011;23796;51.458;7.000;2023-07-13T01:23:26;4.13;;;1.00;;
37973;SDS011;23796;51.458;7.000;2023-07-13T01:25:55;4.78;;;1.08;;
37973;SDS011;23796;51.458;7.000;2023-07-13T01:28:24;3.28;;;1.02;;
37973;SDS011;23796;51.458;7.000;2023-07-13T01:30:54;5.97;;;1.55;;
37973;SDS011;23796;51.458;7.000;2023-07-13T01:33:21;4.13;;;1.20;;
37973;SDS011;23796;51.458;7.000;2023-07-13T01:35:48;4.72;;;0.90;;
37973;SDS011;23796;51.458;7.000;2023-07-13T01:38:16;2.97;;;0.80;;
37973;SDS011;23796;51.458;7.000;2023-07-13T01:40:47;4.93;;;1.35;;
37973;SDS011;23796;51.458;7.000;2023-07-13T01:43:15;6.57;;;1.00;;
37973;SDS011;23796;51.458;7.000;2023-07-13T01:45:44;4.32;;;1.30;;
37973;SDS011;23796;51.458;7.000;2023-07-13T01:48:12;3.85;;;1.05;;
37973;SDS011;23796;51.458;7.000;2023-07-13T01:50:41;6.93;;;1.48;;
37973;SDS011;23796;51.458;7.000;2023-07-13T01:53:09;5.63;;;1.05;;
37973;SDS011;23796;51.458;7.000;2023-07-13T01:55:35;4.28;;;1.02;;
37973;SDS011;23796;51.458;7.000;2023-07-13T01:58:02;6.57;;;1.60;;
37973;SDS011;23796;51.458;7.000;2023-07-13T02:00:31;3.90;;;1.25;;
37973;SDS011;23796;51.458;7.000;2023-07-13T02:02:59;3.97;;;1.00;;
37973;SDS011;23796;51.458;7.000;2023-07-13T02:05:25;4.75;;;1.10;;
37973;SDS011;23796;51.458;7.000;2023-07-13T02:07:50;4.30;;;1.10;;
37973;SDS011;23796;51.458;7.000;2023-07-13T02:10:17;4.53;;;1.70;;
37973;SDS011;23796;51.458;7.000;2023-07-13T02:12:43;6.97;;;1.10;;
37973;SDS011;23796;51.458;7.000;2023-07-13T02:15:12;4.60;;;1.20;;
37973;SDS011;23796;51.458;7.000;2023-07-13T02:17:37;6.47;;;1.27;;
37973;SDS011;23796;51.458;7.000;2023-07-13T02:20:06;4.88;;;1.35;;
37973;SDS011;23796;51.458;7.000;2023-07-13T02:22:34;6.25;;;1.30;;
37973;SDS011;23796;51.458;7.000;2023-07-13T02:25:00;2.63;;;0.85;;
37973;SDS011;23796;51.458;7.000;2023-07-13T02:27:28;5.85;;;1.80;;
37973;SDS011;23796;51.458;7.000;2023-07-13T02:29:56;4.55;;;1.70;;
37973;SDS011;23796;51.458;7.000;2023-07-13T02:32:23;4.53;;;1.25;;
37973;SDS011;23796;51.458;7.000;2023-07-13T02:34:51;5.38;;;1.45;;
37973;SDS011;23796;51.458;7.000;2023-07-13T02:37:20;4.68;;;0.90;;
37973;SDS011;23796;51.458;7.000;2023-07-13T02:39:46;3.95;;;1.00;;
37973;SDS011;23796;51.458;7.000;2023-07-13T02:42:16;4.68;;;1.05;;
37973;SDS011;23796;51.458;7.000;2023-07-13T02:44:42;4.35;;;1.00;;
37973;SDS011;23796;51.458;7.000;2023-07-13T02:47:10;3.88;;;1.02;;
37973;SDS011;23796;51.458;7.000;2023-07-13T02:49:36;5.32;;;1.48;;
37973;SDS011;23796;51.458;7.000;2023-07-13T02:52:02;4.80;;;1.20;;
37973;SDS011;23796;51.458;7.000;2023-07-13T02:54:28;5.65;;;1.63;;
37973;SDS011;23796;51.458;7.000;2023-07-13T02:56:56;8.52;;;1.80;;
37973;SDS011;23796;51.458;7.000;2023-07-13T02:59:22;4.90;;;1.13;;
37973;SDS011;23796;51.458;7.000;2023-07-13T03:01:47;4.57;;;1.00;;
37973;SDS011;23796;51.458;7.000;2023-07-13T03:04:15;4.43;;;1.02;;
37973;SDS011;23796;51.458;7.000;2023-07-13T03:06:44;3.30;;;0.90;;
37973;SDS011;23796;51.458;7.000;2023-07-13T03:09:10;4.65;;;1.02;;
37973;SDS011;23796;51.458;7.000;2023-07-13T03:11:37;3.00;;;0.98;;
37973;SDS011;23796;51.458;7.000;2023-07-13T03:14:03;3.65;;;1.00;;
37973;SDS011;23796;51.458;7.000;2023-07-13T03:16:31;5.70;;;1.05;;
37973;SDS011;23796;51.458;7.000;2023-07-13T03:18:56;3.97;;;0.95;;
37973;SDS011;23796;51.458;7.000;2023-07-13T03:21:22;5.30;;;1.10;;
37973;SDS011;23796;51.458;7.000;2023-07-13T03:23:48;7.35;;;0.93;;
37973;SDS011;23796;51.458;7.000;2023-07-13T03:26:15;5.43;;;1.25;;
37973;SDS011;23796;51.458;7.000;2023-07-13T03:28:43;4.50;;;1.20;;
37973;SDS011;23796;51.458;7.000;2023-07-13T03:31:12;6.30;;;1.30;;
37973;SDS011;23796;51.458;7.000;2023-07-13T03:33:40;5.57;;;1.10;;
37973;SDS011;23796;51.458;7.000;2023-07-13T03:36:07;7.03;;;1.38;;
37973;SDS011;23796;51.458;7.000;2023-07-13T03:38:40;4.30;;;1.02;;
37973;SDS011;23796;51.458;7.000;2023-07-13T03:41:06;4.70;;;0.93;;
37973;SDS011;23796;51.458;7.000;2023-07-13T03:43:31;5.70;;;1.70;;
37973;SDS011;23796;51.458;7.000;2023-07-13T03:45:57;5.13;;;1.42;;
37973;SDS011;23796;51.458;7.000;2023-07-13T03:48:22;4.78;;;1.23;;
37973;SDS011;23796;51.458;7.000;2023-07-13T03:50:48;5.05;;;1.13;;
37973;SDS011;23796;51.458;7.000;2023-07-13T03:53:16;3.92;;;1.20;;
37973;SDS011;23796;51.458;7.000;2023-07-13T03:55:43;3.85;;;1.30;;
37973;SDS011;23796;51.458;7.000;2023-07-13T03:58:26;5.72;;;1.27;;
37973;SDS011;23796;51.458;7.000;2023-07-13T04:00:55;8.18;;;1.50;;
37973;SDS011;23796;51.458;7.000;2023-07-13T04:03:23;5.75;;;1.30;;
37973;SDS011;23796;51.458;7.000;2023-07-13T04:05:50;4.57;;;1.17;;
37973;SDS011;23796;51.458;7.000;2023-07-13T04:08:17;4.90;;;1.05;;
37973;SDS011;23796;51.458;7.000;2023-07-13T04:10:45;5.22;;;1.70;;
37973;SDS011;23796;51.458;7.000;2023-07-13T04:13:11;5.15;;;1.65;;
37973;SDS011;23796;51.458;7.000;2023-07-13T04:15:38;6.28;;;2.00;;
37973;SDS011;23796;51.458;7.000;2023-07-13T04:18:04;6.10;;;1.48;;
37973;SDS011;23796;51.458;7.000;2023-07-13T04:20:30;5.68;;;1.35;;
37973;SDS011;23796;51.458;7.000;2023-07-13T04:22:55;5.50;;;1.40;;
37973;SDS011;23796;51.458;7.000;2023-07-13T04:25:26;5.85;;;1.50;;
37973;SDS011;23796;51.458;7.000;2023-07-13T04:27:52;4.00;;;1.15;;
37973;SDS011;23796;51.458;7.000;2023-07-13T04:30:22;4.43;;;1.23;;
37973;SDS011;23796;51.458;7.000;2023-07-13T04:32:49;4.38;;;1.27;;
37973;SDS011;23796;51.458;7.000;2023-07-13T04:35:18;7.03;;;1.17;;
37973;SDS011;23796;51.458;7.000;2023-07-13T04:37:45;6.50;;;1.27;;
37973;SDS011;23796;51.458;7.000;2023-07-13T04:40:12;5.85;;;1.30;;
37973;SDS011;23796;51.458;7.000;2023-07-13T04:42:40;3.65;;;1.00;;
37973;SDS011;23796;51.458;7.000;2023-07-13T04:45:07;6.07;;;1.38;;
37973;SDS011;23796;51.458;7.000;2023-07-13T04:47:32;5.22;;;1.40;;
37973;SDS011;23796;51.458;7.000;2023-07-13T04:49:58;6.32;;;1.33;;
37973;SDS011;23796;51.458;7.000;2023-07-13T04:52:24;10.57;;;6.50;;
37973;SDS011;23796;51.458;7.000;2023-07-13T04:54:52;6.47;;;1.85;;
37973;SDS011;23796;51.458;7.000;2023-07-13T04:57:17;5.22;;;1.75;;
37973;SDS011;23796;51.458;7.000;2023-07-13T04:59:43;4.75;;;1.45;;
37973;SDS011;23796;51.458;7.000;2023-07-13T05:02:10;6.22;;;1.40;;
37973;SDS011;23796;51.458;7.000;2023-07-13T05:04:38;4.20;;;1.10;;
37973;SDS011;23796;51.458;7.000;2023-07-13T05:07:06;5.32;;;1.67;;
37973;SDS011;23796;51.458;7.000;2023-07-13T05:09:31;4.15;;;1.33;;
37973;SDS011;23796;51.458;7.000;2023-07-13T05:11:57;6.10;;;1.42;;
37973;SDS011;23796;51.458;7.000;2023-07-13T05:14:25;5.20;;;1.05;;
37973;SDS011;23796;51.458;7.000;2023-07-13T05:16:50;6.57;;;2.05;;
37973;SDS011;23796;51.458;7.000;2023-07-13T05:19:16;5.10;;;1.60;;
37973;SDS011;23796;51.458;7.000;2023-07-13T05:21:44;6.63;;;1.83;;
37973;SDS011;23796;51.458;7.000;2023-07-13T05:24:10;5.88;;;1.40;;
37973;SDS011;23796;51.458;7.000;2023-07-13T05:26:35;5.82;;;2.00;;
37973;SDS011;23796;51.458;7.000;2023-07-13T05:29:01;4.45;;;1.52;;
37973;SDS011;23796;51.458;7.000;2023-07-13T05:31:26;5.22;;;1.67;;
37973;SDS011;23796;51.458;7.000;2023-07-13T05:33:54;9.38;;;1.80;;
37973;SDS011;23796;51.458;7.000;2023-07-13T05:36:22;6.72;;;1.50;;
37973;SDS011;23796;51.458;7.000;2023-07-13T05:38:48;4.70;;;1.48;;
37973;SDS011;23796;51.458;7.000;2023-07-13T05:41:14;5.88;;;1.42;;
37973;SDS011;23796;51.458;7.000;2023-07-13T05:43:41;5.50;;;1.55;;
37973;SDS011;23796;51.458;7.000;2023-07-13T05:46:07;6.53;;;1.80;;
37973;SDS011;23796;51.458;7.000;2023-07-13T05:48:35;5.13;;;1.58;;
37973;SDS011;23796;51.458;7.000;2023-07-13T05:51:01;8.02;;;1.75;;
37973;SDS011;23796;51.458;7.000;2023-07-13T05:53:26;5.78;;;1.60;;
37973;SDS011;23796;51.458;7.000;2023-07-13T05:55:54;3.97;;;1.65;;
37973;SDS011;23796;51.458;7.000;2023-07-13T05:58:23;5.63;;;1.65;;
37973;SDS011;23796;51.458;7.000;2023-07-13T06:00:58;7.65;;;2.13;;
37973;SDS011;23796;51.458;7.000;2023-07-13T06:03:31;6.47;;;2.03;;
37973;SDS011;23796;51.458;7.000;2023-07-13T06:05:59;7.70;;;1.58;;
37973;SDS011;23796;51.458;7.000;2023-07-13T06:08:25;5.60;;;2.33;;
37973;SDS011;23796;51.458;7.000;2023-07-13T06:10:54;7.70;;;1.63;;
37973;SDS011;23796;51.458;7.000;2023-07-13T06:13:19;8.77;;;2.22;;
37973;SDS011;23796;51.458;7.000;2023-07-13T06:15:48;8.75;;;1.90;;
37973;SDS011;23796;51.458;7.000;2023-07-13T06:18:17;7.40;;;2.13;;
37973;SDS011;23796;51.458;7.000;2023-07-13T06:20:42;8.02;;;2.17;;
37973;SDS011;23796;51.458;7.000;2023-07-13T06:23:12;7.85;;;1.88;;
37973;SDS011;23796;51.458;7.000;2023-07-13T06:25:40;5.28;;;1.75;;
37973;SDS011;23796;51.458;7.000;2023-07-13T06:28:07;7.85;;;2.10;;
37973;SDS011;23796;51.458;7.000;2023-07-13T06:30:37;7.97;;;2.00;;
37973;SDS011;23796;51.458;7.000;2023-07-13T06:33:06;6.53;;;2.13;;
37973;SDS011;23796;51.458;7.000;2023-07-13T06:35:34;6.28;;;1.90;;
37973;SDS011;23796;51.458;7.000;2023-07-13T06:38:00;7.22;;;2.22;;
37973;SDS011;23796;51.458;7.000;2023-07-13T06:40:25;7.00;;;2.45;;
37973;SDS011;23796;51.458;7.000;2023-07-13T06:42:53;7.20;;;2.33;;
37973;SDS011;23796;51.458;7.000;2023-07-13T06:45:19;7.47;;;2.33;;
37973;SDS011;23796;51.458;7.000;2023-07-13T06:47:44;6.03;;;2.67;;
37973;SDS011;23796;51.458;7.000;2023-07-13T06:50:12;8.43;;;2.55;;
37973;SDS011;23796;51.458;7.000;2023-07-13T06:52:40;6.90;;;2.42;;
37973;SDS011;23796;51.458;7.000;2023-07-13T06:55:05;8.10;;;2.22;;
37973;SDS011;23796;51.458;7.000;2023-07-13T06:57:31;7.15;;;2.40;;
37973;SDS011;23796;51.458;7.000;2023-07-13T06:59:57;12.10;;;2.88;;
37973;SDS011;23796;51.458;7.000;2023-07-13T07:02:23;8.43;;;2.28;;
37973;SDS011;23796;51.458;7.000;2023-07-13T07:04:48;7.32;;;2.45;;
37973;SDS011;23796;51.458;7.000;2023-07-13T07:07:15;7.30;;;2.22;;
37973;SDS011;23796;51.458;7.000;2023-07-13T07:09:40;6.93;;;2.40;;
37973;SDS011;23796;51.458;7.000;2023-07-13T07:12:06;6.35;;;2.10;;
37973;SDS011;23796;51.458;7.000;2023-07-13T07:14:32;7.28;;;2.05;;
37973;SDS011;23796;51.458;7.000;2023-07-13T07:16:59;9.77;;;2.85;;
37973;SDS011;23796;51.458;7.000;2023-07-13T07:19:25;10.45;;;2.78;;
37973;SDS011;23796;51.458;7.000;2023-07-13T07:21:53;9.63;;;2.88;;
37973;SDS011;23796;51.458;7.000;2023-07-13T07:24:20;9.90;;;3.40;;
37973;SDS011;23796;51.458;7.000;2023-07-13T07:26:46;6.97;;;2.20;;
37973;SDS011;23796;51.458;7.000;2023-07-13T07:29:12;6.68;;;2.33;;
37973;SDS011;23796;51.458;7.000;2023-07-13T07:31:37;9.98;;;2.72;;
37973;SDS011;23796;51.458;7.000;2023-07-13T07:34:03;9.48;;;2.55;;
37973;SDS011;23796;51.458;7.000;2023-07-13T07:36:28;5.85;;;2.05;;
37973;SDS011;23796;51.458;7.000;2023-07-13T07:38:59;6.05;;;2.20;;
37973;SDS011;23796;51.458;7.000;2023-07-13T07:41:24;6.72;;;2.35;;
37973;SDS011;23796;51.458;7.000;2023-07-13T07:43:50;6.60;;;2.42;;
37973;SDS011;23796;51.458;7.000;2023-07-13T07:46:16;8.10;;;2.50;;
37973;SDS011;23796;51.458;7.000;2023-07-13T07:48:43;8.88;;;2.97;;
37973;SDS011;23796;51.458;7.000;2023-07-13T07:51:11;8.20;;;2.92;;
37973;SDS011;23796;51.458;7.000;2023-07-13T07:53:37;11.48;;;4.05;;
37973;SDS011;23796;51.458;7.000;2023-07-13T07:56:03;9.60;;;3.95;;
37973;SDS011;23796;51.458;7.000;2023-07-13T07:58:28;6.47;;;2.80;;
37973;SDS011;23796;51.458;7.000;2023-07-13T08:00:54;7.47;;;2.80;;
37973;SDS011;23796;51.458;7.000;2023-07-13T08:03:26;7.35;;;3.38;;
37973;SDS011;23796;51.458;7.000;2023-07-13T08:05:54;8.07;;;3.33;;
37973;SDS011;23796;51.458;7.000;2023-07-13T08:08:22;9.85;;;2.83;;
37973;SDS011;23796;51.458;7.000;2023-07-13T08:10:48;8.95;;;2.67;;
37973;SDS011;23796;51.458;7.000;2023-07-13T08:13:13;7.30;;;2.53;;
37973;SDS011;23796;51.458;7.000;2023-07-13T08:15:39;6.50;;;3.00;;
37973;SDS011;23796;51.458;7.000;2023-07-13T08:18:07;8.30;;;2.83;;
37973;SDS011;23796;51.458;7.000;2023-07-13T08:20:38;6.20;;;2.65;;
37973;SDS011;23796;51.458;7.000;2023-07-13T08:23:06;10.50;;;2.58;;
37973;SDS011;23796;51.458;7.000;2023-07-13T08:25:35;7.85;;;2.13;;
37973;SDS011;23796;51.458;7.000;2023-07-13T08:28:01;7.30;;;2.45;;
37973;SDS011;23796;51.458;7.000;2023-07-13T08:30:28;7.07;;;2.35;;
37973;SDS011;23796;51.458;7.000;2023-07-13T08:32:56;6.50;;;2.10;;
37973;SDS011;23796;51.458;7.000;2023-07-13T08:35:23;7.65;;;2.55;;
37973;SDS011;23796;51.458;7.000;2023-07-13T08:37:50;7.30;;;2.45;;
37973;SDS011;23796;51.458;7.000;2023-07-13T08:40:19;5.72;;;2.05;;
37973;SDS011;23796;51.458;7.000;2023-07-13T08:42:53;6.20;;;1.95;;
37973;SDS011;23796;51.458;7.000;2023-07-13T08:45:22;7.67;;;2.37;;
37973;SDS011;23796;51.458;7.000;2023-07-13T08:53:37;5.65;;;1.95;;
37973;SDS011;23796;51.458;7.000;2023-07-13T08:56:18;8.65;;;2.13;;
37973;SDS011;23796;51.458;7.000;2023-07-13T08:58:50;6.72;;;2.00;;
37973;SDS011;23796;51.458;7.000;2023-07-13T09:01:30;8.05;;;2.40;;
37973;SDS011;23796;51.458;7.000;2023-07-13T09:04:14;6.10;;;2.35;;
37973;SDS011;23796;51.458;7.000;2023-07-13T09:09:29;6.68;;;2.58;;
37973;SDS011;23796;51.458;7.000;2023-07-13T09:12:22;5.35;;;2.00;;
37973;SDS011;23796;51.458;7.000;2023-07-13T09:15:16;8.60;;;3.13;;
37973;SDS011;23796;51.458;7.000;2023-07-13T09:17:57;8.10;;;2.45;;
37973;SDS011;23796;51.458;7.000;2023-07-13T09:20:35;10.75;;;2.55;;
37973;SDS011;23796;51.458;7.000;2023-07-13T09:23:05;7.10;;;2.20;;
37973;SDS011;23796;51.458;7.000;2023-07-13T09:25:37;9.65;;;2.15;;
37973;SDS011;23796;51.458;7.000;2023-07-13T09:28:10;6.35;;;2.50;;
37973;SDS011;23796;51.458;7.000;2023-07-13T09:33:05;6.57;;;2.28;;
37973;SDS011;23796;51.458;7.000;2023-07-13T09:35:30;8.02;;;2.25;;
37973;SDS011;23796;51.458;7.000;2023-07-13T09:37:57;8.40;;;2.63;;
37973;SDS011;23796;51.458;7.000;2023-07-13T09:40:30;5.68;;;2.00;;
37973;SDS011;23796;51.458;7.000;2023-07-13T09:43:03;8.80;;;2.60;;
37973;SDS011;23796;51.458;7.000;2023-07-13T09:45:35;5.05;;;2.03;;
37973;SDS011;23796;51.458;7.000;2023-07-13T09:48:11;5.75;;;1.85;;
37973;SDS011;23796;51.458;7.000;2023-07-13T09:50:38;6.10;;;2.15;;
37973;SDS011;23796;51.458;7.000;2023-07-13T09:53:04;13.98;;;2.53;;
37973;SDS011;23796;51.458;7.000;2023-07-13T09:55:41;7.10;;;2.40;;
37973;SDS011;23796;51.458;7.000;2023-07-13T10:00:37;6.18;;;1.95;;
37973;SDS011;23796;51.458;7.000;2023-07-13T10:05:42;6.43;;;2.08;;
37973;SDS011;23796;51.458;7.000;2023-07-13T10:11:12;5.57;;;1.77;;
37973;SDS011;23796;51.458;7.000;2023-07-13T10:13:53;5.88;;;1.98;;
37973;SDS011;23796;51.458;7.000;2023-07-13T10:16:20;5.47;;;1.70;;
37973;SDS011;23796;51.458;7.000;2023-07-13T10:18:53;7.88;;;2.20;;
37973;SDS011;23796;51.458;7.000;2023-07-13T10:21:30;6.85;;;2.33;;
37973;SDS011;23796;51.458;7.000;2023-07-13T10:24:22;5.80;;;2.60;;
37973;SDS011;23796;51.458;7.000;2023-07-13T10:29:26;7.80;;;2.75;;
37973;SDS011;23796;51.458;7.000;2023-07-13T10:31:54;6.65;;;2.08;;
37973;SDS011;23796;51.458;7.000;2023-07-13T10:34:22;6.68;;;2.03;;
37973;SDS011;23796;51.458;7.000;2023-07-13T10:36:51;7.47;;;2.20;;
37973;SDS011;23796;51.458;7.000;2023-07-13T10:39:27;7.25;;;2.60;;
37973;SDS011;23796;51.458;7.000;2023-07-13T10:42:03;7.30;;;2.25;;
37973;SDS011;23796;51.458;7.000;2023-07-13T10:44:32;7.00;;;2.00;;
37973;SDS011;23796;51.458;7.000;2023-07-13T10:47:02;7.20;;;2.45;;
37973;SDS011;23796;51.458;7.000;2023-07-13T10:49:32;5.30;;;2.10;;
37973;SDS011;23796;51.458;7.000;2023-07-13T10:52:00;8.63;;;2.30;;
37973;SDS011;23796;51.458;7.000;2023-07-13T10:59:41;5.55;;;2.03;;
37973;SDS011;23796;51.458;7.000;2023-07-13T11:04:48;7.03;;;2.05;;
37973;SDS011;23796;51.458;7.000;2023-07-13T11:09:49;8.00;;;2.10;;
37973;SDS011;23796;51.458;7.000;2023-07-13T11:20:08;9.27;;;2.00;;
37973;SDS011;23796;51.458;7.000;2023-07-13T11:28:05;4.38;;;1.63;;
37973;SDS011;23796;51.458;7.000;2023-07-13T11:30:39;7.20;;;2.10;;
37973;SDS011;23796;51.458;7.000;2023-07-13T11:33:17;6.15;;;1.92;;
37973;SDS011;23796;51.458;7.000;2023-07-13T11:38:40;9.40;;;2.35;;
37973;SDS011;23796;51.458;7.000;2023-07-13T11:43:51;6.70;;;2.13;;
37973;SDS011;23796;51.458;7.000;2023-07-13T11:48:46;13.32;;;2.53;;
37973;SDS011;23796;51.458;7.000;2023-07-13T11:51:37;7.93;;;1.80;;
37973;SDS011;23796;51.458;7.000;2023-07-13T11:54:14;5.28;;;1.70;;
37973;SDS011;23796;51.458;7.000;2023-07-13T11:56:55;5.50;;;1.90;;
37973;SDS011;23796;51.458;7.000;2023-07-13T11:59:25;5.70;;;1.80;;
37973;SDS011;23796;51.458;7.000;2023-07-13T12:01:53;6.28;;;2.08;;
37973;SDS011;23796;51.458;7.000;2023-07-13T12:07:14;4.88;;;1.70;;
37973;SDS011;23796;51.458;7.000;2023-07-13T12:09:41;6.85;;;1.63;;
37973;SDS011;23796;51.458;7.000;2023-07-13T12:12:18;6.72;;;2.17;;
37973;SDS011;23796;51.458;7.000;2023-07-13T12:14:54;5.07;;;1.88;;
37973;SDS011;23796;51.458;7.000;2023-07-13T12:17:21;3.70;;;1.30;;
37973;SDS011;23796;51.458;7.000;2023-07-13T12:19:48;7.88;;;1.73;;
37973;SDS011;23796;51.458;7.000;2023-07-13T12:22:16;5.03;;;1.65;;
37973;SDS011;23796;51.458;7.000;2023-07-13T12:24:44;4.72;;;1.40;;
37973;SDS011;23796;51.458;7.000;2023-07-13T12:27:28;4.35;;;1.27;;
37973;SDS011;23796;51.458;7.000;2023-07-13T12:29:58;4.75;;;1.40;;
37973;SDS011;23796;51.458;7.000;2023-07-13T12:32:26;4.07;;;1.15;;
37973;SDS011;23796;51.458;7.000;2023-07-13T12:34:53;5.70;;;1.90;;
37973;SDS011;23796;51.458;7.000;2023-07-13T12:37:21;2.95;;;1.27;;
37973;SDS011;23796;51.458;7.000;2023-07-13T12:39:49;5.38;;;1.70;;
37973;SDS011;23796;51.458;7.000;2023-07-13T12:44:58;6.70;;;1.75;;
37973;SDS011;23796;51.458;7.000;2023-07-13T12:47:39;6.22;;;1.75;;
37973;SDS011;23796;51.458;7.000;2023-07-13T12:50:12;7.50;;;1.58;;
37973;SDS011;23796;51.458;7.000;2023-07-13T12:52:42;5.10;;;1.48;;
37973;SDS011;23796;51.458;7.000;2023-07-13T12:55:17;5.63;;;1.73;;
37973;SDS011;23796;51.458;7.000;2023-07-13T12:57:49;4.97;;;1.50;;
37973;SDS011;23796;51.458;7.000;2023-07-13T13:02:49;5.03;;;1.42;;
37973;SDS011;23796;51.458;7.000;2023-07-13T13:05:19;5.15;;;1.90;;
37973;SDS011;23796;51.458;7.000;2023-07-13T13:07:50;4.88;;;1.60;;
37973;SDS011;23796;51.458;7.000;2023-07-13T13:10:16;6.13;;;1.50;;
37973;SDS011;23796;51.458;7.000;2023-07-13T13:12:46;3.88;;;1.42;;
37973;SDS011;23796;51.458;7.000;2023-07-13T13:15:12;7.18;;;1.48;;
37973;SDS011;23796;51.458;7.000;2023-07-13T13:17:39;4.30;;;1.45;;
37973;SDS011;23796;51.458;7.000;2023-07-13T13:20:17;4.63;;;1.55;;
37973;SDS011;23796;51.458;7.000;2023-07-13T13:22:45;6.70;;;1.48;;
37973;SDS011;23796;51.458;7.000;2023-07-13T13:25:11;7.75;;;2.00;;
37973;SDS011;23796;51.458;7.000;2023-07-13T13:27:37;5.82;;;1.90;;
37973;SDS011;23796;51.458;7.000;2023-07-13T13:30:10;5.63;;;1.98;;
37973;SDS011;23796;51.458;7.000;2023-07-13T13:32:44;7.57;;;1.88;;
37973;SDS011;23796;51.458;7.000;2023-07-13T13:35:16;6.97;;;1.50;;
37973;SDS011;23796;51.458;7.000;2023-07-13T13:37:45;3.42;;;1.60;;
37973;SDS011;23796;51.458;7.000;2023-07-13T13:42:51;6.15;;;1.67;;
37973;SDS011;23796;51.458;7.000;2023-07-13T13:45:21;3.67;;;1.42;;
37973;SDS011;23796;51.458;7.000;2023-07-13T13:47:46;3.55;;;1.48;;
37973;SDS011;23796;51.458;7.000;2023-07-13T13:50:20;4.25;;;1.65;;
37973;SDS011;23796;51.458;7.000;2023-07-13T13:52:49;4.30;;;1.60;;
37973;SDS011;23796;51.458;7.000;2023-07-13T13:55:18;3.65;;;1.50;;
37973;SDS011;23796;51.458;7.000;2023-07-13T13:57:45;5.97;;;2.00;;
37973;SDS011;23796;51.458;7.000;2023-07-13T14:00:14;9.02;;;1.77;;
37973;SDS011;23796;51.458;7.000;2023-07-13T14:02:44;4.22;;;1.80;;
37973;SDS011;23796;51.458;7.000;2023-07-13T14:05:20;6.55;;;2.00;;
37973;SDS011;23796;51.458;7.000;2023-07-13T14:07:47;6.70;;;2.20;;
37973;SDS011;23796;51.458;7.000;2023-07-13T14:10:15;6.47;;;1.98;;
37973;SDS011;23796;51.458;7.000;2023-07-13T14:12:44;5.85;;;2.00;;
37973;SDS011;23796;51.458;7.000;2023-07-13T14:17:48;5.55;;;1.90;;
37973;SDS011;23796;51.458;7.000;2023-07-13T14:20:17;8.18;;;2.28;;
37973;SDS011;23796;51.458;7.000;2023-07-13T14:25:14;7.18;;;1.70;;
37973;SDS011;23796;51.458;7.000;2023-07-13T14:27:43;5.03;;;1.90;;
37973;SDS011;23796;51.458;7.000;2023-07-13T14:30:16;4.50;;;1.73;;
37973;SDS011;23796;51.458;7.000;2023-07-13T14:32:48;5.85;;;1.92;;
37973;SDS011;23796;51.458;7.000;2023-07-13T14:35:17;5.28;;;2.45;;
37973;SDS011;23796;51.458;7.000;2023-07-13T14:37:46;5.00;;;1.83;;
37973;SDS011;23796;51.458;7.000;2023-07-13T14:40:24;4.22;;;1.85;;
37973;SDS011;23796;51.458;7.000;2023-07-13T14:42:57;4.93;;;2.10;;
37973;SDS011;23796;51.458;7.000;2023-07-13T14:45:27;4.50;;;1.88;;
37973;SDS011;23796;51.458;7.000;2023-07-13T14:47:53;5.10;;;2.00;;
37973;SDS011;23796;51.458;7.000;2023-07-13T14:50:23;6.35;;;2.20;;
37973;SDS011;23796;51.458;7.000;2023-07-13T14:52:53;4.38;;;1.85;;
37973;SDS011;23796;51.458;7.000;2023-07-13T14:55:19;5.07;;;1.98;;
37973;SDS011;23796;51.458;7.000;2023-07-13T14:57:45;4.03;;;1.75;;
37973;SDS011;23796;51.458;7.000;2023-07-13T15:00:19;4.32;;;1.80;;
37973;SDS011;23796;51.458;7.000;2023-07-13T15:02:47;7.50;;;2.20;;
37973;SDS011;23796;51.458;7.000;2023-07-13T15:05:17;4.25;;;1.70;;
37973;SDS011;23796;51.458;7.000;2023-07-13T15:07:45;5.88;;;2.00;;
37973;SDS011;23796;51.458;7.000;2023-07-13T15:10:18;5.55;;;2.08;;
37973;SDS011;23796;51.458;7.000;2023-07-13T15:12:45;4.22;;;1.95;;
37973;SDS011;23796;51.458;7.000;2023-07-13T15:15:11;4.18;;;1.88;;
37973;SDS011;23796;51.458;7.000;2023-07-13T15:17:46;5.45;;;2.20;;
37973;SDS011;23796;51.458;7.000;2023-07-13T15:20:19;4.75;;;2.20;;
37973;SDS011;23796;51.458;7.000;2023-07-13T15:22:46;5.15;;;1.80;;
37973;SDS011;23796;51.458;7.000;2023-07-13T15:25:24;5.45;;;2.15;;
37973;SDS011;23796;51.458;7.000;2023-07-13T15:27:55;4.32;;;1.98;;
37973;SDS011;23796;51.458;7.000;2023-07-13T15:30:22;4.10;;;1.60;;
37973;SDS011;23796;51.458;7.000;2023-07-13T15:32:52;6.40;;;2.40;;
37973;SDS011;23796;51.458;7.000;2023-07-13T15:35:20;6.15;;;2.00;;
37973;SDS011;23796;51.458;7.000;2023-07-13T15:37:47;7.65;;;1.92;;
37973;SDS011;23796;51.458;7.000;2023-07-13T15:40:13;4.53;;;2.13;;
37973;SDS011;23796;51.458;7.000;2023-07-13T15:42:42;4.13;;;1.60;;
37973;SDS011;23796;51.458;7.000;2023-07-13T15:45:14;5.45;;;1.90;;
37973;SDS011;23796;51.458;7.000;2023-07-13T15:47:40;6.38;;;2.00;;
37973;SDS011;23796;51.458;7.000;2023-07-13T15:50:11;5.35;;;1.95;;
37973;SDS011;23796;51.458;7.000;2023-07-13T15:52:38;4.88;;;2.13;;
37973;SDS011;23796;51.458;7.000;2023-07-13T15:55:04;5.03;;;2.35;;
37973;SDS011;23796;51.458;7.000;2023-07-13T15:57:30;5.25;;;1.55;;
37973;SDS011;23796;51.458;7.000;2023-07-13T15:59:58;5.32;;;2.00;;
37973;SDS011;23796;51.458;7.000;2023-07-13T16:02:24;4.32;;;1.50;;
37973;SDS011;23796;51.458;7.000;2023-07-13T16:04:50;3.60;;;1.38;;
37973;SDS011;23796;51.458;7.000;2023-07-13T16:07:16;5.13;;;1.60;;
37973;SDS011;23796;51.458;7.000;2023-07-13T16:09:47;5.05;;;1.73;;